sensor_id;sensor_type;location;lat;lon;timestamp;P1;durP1;ratioP1;P2;durP2;ratioP2
15788;SDS011;59075;50.670;6.474;2022-10-30T06:02:17;765.27;;;709.27;;
15788;SDS011;59075;50.670;6.474;2022-10-30T06:04:44;752.53;;;697.00;;
15788;SDS011;59075;50.670;6.474;2022-10-30T06:07:11;751.20;;;695.77;;
15788;SDS011;59075;50.670;6.474;2022-10-30T06:09:38;759.23;;;703.37;;
15788;SDS011;59075;50.670;6.474;2022-10-30T06:12:05;756.70;;;700.97;;
15788;SDS011;59075;50.670;6.474;2022-10-30T06:14:31;759.27;;;703.40;;
15788;SDS011;59075;50.670;6.474;2022-10-30T06:16:58;753.63;;;698.13;;
15788;SDS011;59075;50.670;6.474;2022-10-30T06:19:26;759.23;;;703.50;;
15788;SDS011;59075;50.670;6.474;2022-10-30T06:21:53;750.97;;;695.43;;
15788;SDS011;59075;50.670;6.474;2022-10-30T06:24:20;749.17;;;693.67;;
15788;SDS011;59075;50.670;6.474;2022-10-30T06:26:46;753.70;;;697.50;;
15788;SDS011;59075;50.670;6.474;2022-10-30T06:29:14;754.47;;;698.80;;
15788;SDS011;59075;50.670;6.474;2022-10-30T06:31:41;755.77;;;699.93;;
15788;SDS011;59075;50.670;6.474;2022-10-30T06:34:08;757.73;;;701.83;;
15788;SDS011;59075;50.670;6.474;2022-10-30T06:36:36;764.40;;;708.17;;
15788;SDS011;59075;50.670;6.474;2022-10-30T06:39:03;752.80;;;697.10;;
15788;SDS011;59075;50.670;6.474;2022-10-30T06:41:29;752.23;;;696.60;;
15788;SDS011;59075;50.670;6.474;2022-10-30T06:43:57;762.80;;;706.93;;
15788;SDS011;59075;50.670;6.474;2022-10-30T06:46:24;747.70;;;692.20;;
15788;SDS011;59075;50.670;6.474;2022-10-30T06:48:51;748.93;;;693.30;;
15788;SDS011;59075;50.670;6.474;2022-10-30T06:51:18;753.27;;;697.67;;
15788;SDS011;59075;50.670;6.474;2022-10-30T06:53:46;759.53;;;703.53;;
15788;SDS011;59075;50.670;6.474;2022-10-30T06:56:13;737.70;;;682.53;;
15788;SDS011;59075;50.670;6.474;2022-10-30T06:58:39;755.47;;;699.50;;
15788;SDS011;59075;50.670;6.474;2022-10-30T07:01:07;749.70;;;694.10;;
15788;SDS011;59075;50.670;6.474;2022-10-30T07:03:34;757.07;;;701.33;;
15788;SDS011;59075;50.670;6.474;2022-10-30T07:06:00;752.90;;;697.20;;
15788;SDS011;59075;50.670;6.474;2022-10-30T07:08:27;754.00;;;698.23;;
15788;SDS011;59075;50.670;6.474;2022-10-30T07:10:56;750.30;;;694.70;;
15788;SDS011;59075;50.670;6.474;2022-10-30T07:13:23;742.70;;;687.27;;
15788;SDS011;59075;50.670;6.474;2022-10-30T07:15:50;763.23;;;706.40;;
15788;SDS011;59075;50.670;6.474;2022-10-30T07:18:16;745.77;;;690.23;;
15788;SDS011;59075;50.670;6.474;2022-10-30T07:20:43;747.30;;;692.00;;
15788;SDS011;59075;50.670;6.474;2022-10-30T07:23:09;746.23;;;690.90;;
15788;SDS011;59075;50.670;6.474;2022-10-30T07:25:36;751.17;;;695.27;;
15788;SDS011;59075;50.670;6.474;2022-10-30T07:28:05;753.67;;;697.83;;
15788;SDS011;59075;50.670;6.474;2022-10-30T07:30:31;761.33;;;704.97;;
15788;SDS011;59075;50.670;6.474;2022-10-30T07:32:59;755.47;;;699.47;;
15788;SDS011;59075;50.670;6.474;2022-10-30T07:35:26;740.90;;;685.53;;
15788;SDS011;59075;50.670;6.474;2022-10-30T07:37:53;753.73;;;698.07;;
15788;SDS011;59075;50.670;6.474;2022-10-30T07:40:21;740.60;;;684.67;;
15788;SDS011;59075;50.670;6.474;2022-10-30T07:42:48;763.13;;;707.07;;
15788;SDS011;59075;50.670;6.474;2022-10-30T07:45:16;762.40;;;706.40;;
15788;SDS011;59075;50.670;6.474;2022-10-30T07:47:42;738.33;;;683.13;;
15788;SDS011;59075;50.670;6.474;2022-10-30T07:50:09;758.13;;;702.37;;
15788;SDS011;59075;50.670;6.474;2022-10-30T07:52:36;756.07;;;700.13;;
15788;SDS011;59075;50.670;6.474;2022-10-30T07:55:03;756.67;;;700.67;;
15788;SDS011;59075;50.670;6.474;2022-10-30T07:57:33;752.07;;;696.40;;
15788;SDS011;59075;50.670;6.474;2022-10-30T08:00:00;750.47;;;694.47;;
15788;SDS011;59075;50.670;6.474;2022-10-30T08:02:29;759.23;;;703.40;;
15788;SDS011;59075;50.670;6.474;2022-10-30T08:04:55;768.77;;;712.50;;
15788;SDS011;59075;50.670;6.474;2022-10-30T08:07:22;763.30;;;707.10;;
15788;SDS011;59075;50.670;6.474;2022-10-30T08:09:49;755.17;;;699.47;;
15788;SDS011;59075;50.670;6.474;2022-10-30T08:12:15;747.63;;;692.07;;
15788;SDS011;59075;50.670;6.474;2022-10-30T08:14:42;754.63;;;698.83;;
15788;SDS011;59075;50.670;6.474;2022-10-30T08:17:08;752.50;;;696.70;;
15788;SDS011;59075;50.670;6.474;2022-10-30T08:19:37;761.10;;;705.20;;
15788;SDS011;59075;50.670;6.474;2022-10-30T08:22:03;763.30;;;707.37;;
15788;SDS011;59075;50.670;6.474;2022-10-30T08:24:30;767.53;;;711.47;;
15788;SDS011;59075;50.670;6.474;2022-10-30T08:26:57;770.47;;;713.70;;
15788;SDS011;59075;50.670;6.474;2022-10-30T08:29:23;759.77;;;703.87;;
15788;SDS011;59075;50.670;6.474;2022-10-30T08:31:50;760.30;;;704.30;;
15788;SDS011;59075;50.670;6.474;2022-10-30T08:34:17;762.63;;;706.47;;
15788;SDS011;59075;50.670;6.474;2022-10-30T08:36:46;757.50;;;701.57;;
15788;SDS011;59075;50.670;6.474;2022-10-30T08:39:13;764.87;;;708.87;;
15788;SDS011;59075;50.670;6.474;2022-10-30T08:41:40;752.27;;;696.50;;
15788;SDS011;59075;50.670;6.474;2022-10-30T08:44:07;757.27;;;701.43;;
15788;SDS011;59075;50.670;6.474;2022-10-30T08:46:33;760.10;;;704.27;;
15788;SDS011;59075;50.670;6.474;2022-10-30T08:49:00;753.30;;;697.63;;
15788;SDS011;59075;50.670;6.474;2022-10-30T08:51:30;760.53;;;704.23;;
15788;SDS011;59075;50.670;6.474;2022-10-30T08:53:59;750.13;;;694.53;;
15788;SDS011;59075;50.670;6.474;2022-10-30T08:56:26;762.67;;;706.60;;
15788;SDS011;59075;50.670;6.474;2022-10-30T08:58:53;738.60;;;683.30;;
15788;SDS011;59075;50.670;6.474;2022-10-30T09:01:20;771.17;;;714.93;;
15788;SDS011;59075;50.670;6.474;2022-10-30T09:03:46;773.27;;;716.83;;
15788;SDS011;59075;50.670;6.474;2022-10-30T09:06:13;758.80;;;703.00;;
15788;SDS011;59075;50.670;6.474;2022-10-30T09:08:40;752.43;;;696.93;;
15788;SDS011;59075;50.670;6.474;2022-10-30T09:11:08;749.73;;;694.07;;
15788;SDS011;59075;50.670;6.474;2022-10-30T09:13:34;751.00;;;695.73;;
15788;SDS011;59075;50.670;6.474;2022-10-30T09:16:01;763.30;;;707.40;;
15788;SDS011;59075;50.670;6.474;2022-10-30T09:18:29;761.67;;;705.83;;
15788;SDS011;59075;50.670;6.474;2022-10-30T09:20:56;765.03;;;708.73;;
15788;SDS011;59075;50.670;6.474;2022-10-30T09:23:22;754.20;;;698.47;;
15788;SDS011;59075;50.670;6.474;2022-10-30T09:25:49;758.80;;;702.30;;
15788;SDS011;59075;50.670;6.474;2022-10-30T09:28:17;763.20;;;707.23;;
15788;SDS011;59075;50.670;6.474;2022-10-30T09:30:44;760.37;;;704.37;;
15788;SDS011;59075;50.670;6.474;2022-10-30T09:33:13;752.43;;;696.83;;
15788;SDS011;59075;50.670;6.474;2022-10-30T09:35:39;770.47;;;713.33;;
15788;SDS011;59075;50.670;6.474;2022-10-30T09:38:06;751.10;;;695.50;;
15788;SDS011;59075;50.670;6.474;2022-10-30T09:40:38;763.30;;;707.47;;
15788;SDS011;59075;50.670;6.474;2022-10-30T09:43:20;761.97;;;706.10;;
15788;SDS011;59075;50.670;6.474;2022-10-30T09:46:03;756.33;;;700.63;;
15788;SDS011;59075;50.670;6.474;2022-10-30T09:48:44;760.20;;;704.60;;
15788;SDS011;59075;50.670;6.474;2022-10-30T09:51:37;757.27;;;701.37;;
15788;SDS011;59075;50.670;6.474;2022-10-30T09:54:19;759.10;;;703.40;;
15788;SDS011;59075;50.670;6.474;2022-10-30T09:56:50;763.40;;;707.63;;
15788;SDS011;59075;50.670;6.474;2022-10-30T09:59:26;754.13;;;698.43;;
15788;SDS011;59075;50.670;6.474;2022-10-30T10:02:01;770.37;;;714.00;;
15788;SDS011;59075;50.670;6.474;2022-10-30T10:04:38;765.10;;;709.00;;
15788;SDS011;59075;50.670;6.474;2022-10-30T10:07:09;768.57;;;712.40;;
15788;SDS011;59075;50.670;6.474;2022-10-30T10:09:42;769.60;;;713.27;;
15788;SDS011;59075;50.670;6.474;2022-10-30T10:12:10;767.33;;;711.33;;
15788;SDS011;59075;50.670;6.474;2022-10-30T10:14:45;782.07;;;725.27;;
15788;SDS011;59075;50.670;6.474;2022-10-30T10:17:14;765.93;;;709.63;;
15788;SDS011;59075;50.670;6.474;2022-10-30T10:19:46;777.03;;;720.33;;
15788;SDS011;59075;50.670;6.474;2022-10-30T10:22:19;771.40;;;714.93;;
15788;SDS011;59075;50.670;6.474;2022-10-30T10:24:47;783.93;;;727.03;;
15788;SDS011;59075;50.670;6.474;2022-10-30T10:27:15;765.93;;;709.60;;
15788;SDS011;59075;50.670;6.474;2022-10-30T10:29:55;779.70;;;722.77;;
15788;SDS011;59075;50.670;6.474;2022-10-30T10:32:34;771.53;;;715.13;;
15788;SDS011;59075;50.670;6.474;2022-10-30T10:35:16;789.43;;;732.47;;
15788;SDS011;59075;50.670;6.474;2022-10-30T10:38:06;761.07;;;705.27;;
15788;SDS011;59075;50.670;6.474;2022-10-30T10:40:41;761.37;;;705.53;;
15788;SDS011;59075;50.670;6.474;2022-10-30T10:43:20;780.90;;;724.33;;
15788;SDS011;59075;50.670;6.474;2022-10-30T10:45:59;770.90;;;714.70;;
15788;SDS011;59075;50.670;6.474;2022-10-30T10:48:46;764.23;;;708.40;;
15788;SDS011;59075;50.670;6.474;2022-10-30T10:51:24;764.83;;;708.50;;
15788;SDS011;59075;50.670;6.474;2022-10-30T10:53:57;776.53;;;719.97;;
15788;SDS011;59075;50.670;6.474;2022-10-30T10:56:27;777.07;;;720.63;;
15788;SDS011;59075;50.670;6.474;2022-10-30T10:58:57;786.67;;;729.93;;
15788;SDS011;59075;50.670;6.474;2022-10-30T11:01:30;777.23;;;720.63;;
15788;SDS011;59075;50.670;6.474;2022-10-30T11:04:02;793.20;;;736.10;;
15788;SDS011;59075;50.670;6.474;2022-10-30T11:06:33;786.63;;;729.67;;
15788;SDS011;59075;50.670;6.474;2022-10-30T11:09:11;777.50;;;720.97;;
15788;SDS011;59075;50.670;6.474;2022-10-30T11:11:40;798.57;;;741.03;;
15788;SDS011;59075;50.670;6.474;2022-10-30T11:14:10;787.60;;;730.77;;
15788;SDS011;59075;50.670;6.474;2022-10-30T11:16:43;773.67;;;717.03;;
15788;SDS011;59075;50.670;6.474;2022-10-30T11:19:21;782.50;;;725.60;;
15788;SDS011;59075;50.670;6.474;2022-10-30T11:21:50;781.80;;;725.13;;
15788;SDS011;59075;50.670;6.474;2022-10-30T11:24:26;777.83;;;721.07;;
15788;SDS011;59075;50.670;6.474;2022-10-30T11:26:54;774.83;;;718.20;;
15788;SDS011;59075;50.670;6.474;2022-10-30T11:29:22;791.57;;;734.47;;
15788;SDS011;59075;50.670;6.474;2022-10-30T11:31:58;797.80;;;739.97;;
15788;SDS011;59075;50.670;6.474;2022-10-30T11:34:30;796.33;;;738.80;;
15788;SDS011;59075;50.670;6.474;2022-10-30T11:36:58;786.37;;;729.37;;
15788;SDS011;59075;50.670;6.474;2022-10-30T11:39:26;788.63;;;731.50;;
15788;SDS011;59075;50.670;6.474;2022-10-30T11:41:55;779.00;;;722.33;;
15788;SDS011;59075;50.670;6.474;2022-10-30T11:44:26;802.27;;;744.73;;
15788;SDS011;59075;50.670;6.474;2022-10-30T11:46:56;788.07;;;731.23;;
15788;SDS011;59075;50.670;6.474;2022-10-30T11:49:26;792.70;;;735.23;;
15788;SDS011;59075;50.670;6.474;2022-10-30T11:51:58;797.73;;;740.43;;
15788;SDS011;59075;50.670;6.474;2022-10-30T11:54:25;790.13;;;733.03;;
15788;SDS011;59075;50.670;6.474;2022-10-30T11:56:52;787.87;;;730.73;;
15788;SDS011;59075;50.670;6.474;2022-10-30T11:59:20;790.03;;;733.13;;
15788;SDS011;59075;50.670;6.474;2022-10-30T12:01:58;788.10;;;731.13;;
15788;SDS011;59075;50.670;6.474;2022-10-30T12:04:28;785.00;;;728.17;;
15788;SDS011;59075;50.670;6.474;2022-10-30T12:07:06;802.67;;;745.40;;
15788;SDS011;59075;50.670;6.474;2022-10-30T12:09:40;794.47;;;737.13;;
15788;SDS011;59075;50.670;6.474;2022-10-30T12:12:12;784.20;;;727.23;;
15788;SDS011;59075;50.670;6.474;2022-10-30T12:14:47;777.53;;;721.00;;
15788;SDS011;59075;50.670;6.474;2022-10-30T12:17:14;787.53;;;730.50;;
15788;SDS011;59075;50.670;6.474;2022-10-30T12:19:48;793.83;;;736.37;;
15788;SDS011;59075;50.670;6.474;2022-10-30T12:22:26;792.90;;;735.90;;
15788;SDS011;59075;50.670;6.474;2022-10-30T12:24:56;799.67;;;742.13;;
15788;SDS011;59075;50.670;6.474;2022-10-30T12:27:24;790.17;;;732.93;;
15788;SDS011;59075;50.670;6.474;2022-10-30T12:30:03;795.57;;;737.80;;
15788;SDS011;59075;50.670;6.474;2022-10-30T12:32:36;785.10;;;728.40;;
15788;SDS011;59075;50.670;6.474;2022-10-30T12:35:13;786.77;;;729.80;;
15788;SDS011;59075;50.670;6.474;2022-10-30T12:37:46;790.77;;;733.60;;
15788;SDS011;59075;50.670;6.474;2022-10-30T12:40:17;793.83;;;736.73;;
15788;SDS011;59075;50.670;6.474;2022-10-30T12:42:50;791.10;;;734.00;;
15788;SDS011;59075;50.670;6.474;2022-10-30T12:45:23;789.37;;;732.50;;
15788;SDS011;59075;50.670;6.474;2022-10-30T12:47:53;800.37;;;742.77;;
15788;SDS011;59075;50.670;6.474;2022-10-30T12:50:28;800.03;;;742.63;;
15788;SDS011;59075;50.670;6.474;2022-10-30T12:52:59;779.10;;;722.47;;
15788;SDS011;59075;50.670;6.474;2022-10-30T12:55:32;795.40;;;738.00;;
15788;SDS011;59075;50.670;6.474;2022-10-30T12:58:02;793.77;;;736.63;;
15788;SDS011;59075;50.670;6.474;2022-10-30T13:00:36;782.27;;;725.57;;
15788;SDS011;59075;50.670;6.474;2022-10-30T13:03:19;797.30;;;739.87;;
15788;SDS011;59075;50.670;6.474;2022-10-30T13:05:50;787.27;;;729.73;;
15788;SDS011;59075;50.670;6.474;2022-10-30T13:08:21;792.60;;;735.50;;
15788;SDS011;59075;50.670;6.474;2022-10-30T13:10:53;795.40;;;738.23;;
15788;SDS011;59075;50.670;6.474;2022-10-30T13:13:29;797.83;;;740.67;;
15788;SDS011;59075;50.670;6.474;2022-10-30T13:16:01;787.00;;;730.20;;
15788;SDS011;59075;50.670;6.474;2022-10-30T13:18:29;803.93;;;746.07;;
15788;SDS011;59075;50.670;6.474;2022-10-30T13:21:09;792.30;;;735.27;;
15788;SDS011;59075;50.670;6.474;2022-10-30T13:23:47;785.70;;;728.90;;
15788;SDS011;59075;50.670;6.474;2022-10-30T13:26:21;794.07;;;736.87;;
15788;SDS011;59075;50.670;6.474;2022-10-30T13:28:52;778.20;;;721.47;;
15788;SDS011;59075;50.670;6.474;2022-10-30T13:31:27;790.03;;;733.27;;
15788;SDS011;59075;50.670;6.474;2022-10-30T13:34:01;793.80;;;736.87;;
15788;SDS011;59075;50.670;6.474;2022-10-30T13:36:38;794.50;;;737.40;;
15788;SDS011;59075;50.670;6.474;2022-10-30T13:39:14;796.63;;;739.70;;
15788;SDS011;59075;50.670;6.474;2022-10-30T13:41:53;794.70;;;737.60;;
15788;SDS011;59075;50.670;6.474;2022-10-30T13:44:28;806.60;;;749.37;;
15788;SDS011;59075;50.670;6.474;2022-10-30T13:47:06;789.70;;;732.57;;
15788;SDS011;59075;50.670;6.474;2022-10-30T13:49:48;796.20;;;739.10;;
15788;SDS011;59075;50.670;6.474;2022-10-30T13:52:28;784.17;;;727.23;;
15788;SDS011;59075;50.670;6.474;2022-10-30T13:54:59;788.67;;;731.57;;
15788;SDS011;59075;50.670;6.474;2022-10-30T13:57:31;797.77;;;740.23;;
15788;SDS011;59075;50.670;6.474;2022-10-30T14:00:04;791.57;;;734.63;;
15788;SDS011;59075;50.670;6.474;2022-10-30T14:02:40;798.97;;;741.47;;
15788;SDS011;59075;50.670;6.474;2022-10-30T14:05:25;796.50;;;739.33;;
15788;SDS011;59075;50.670;6.474;2022-10-30T14:07:58;796.13;;;738.97;;
15788;SDS011;59075;50.670;6.474;2022-10-30T14:10:41;779.67;;;723.07;;
15788;SDS011;59075;50.670;6.474;2022-10-30T14:13:14;787.03;;;730.23;;
15788;SDS011;59075;50.670;6.474;2022-10-30T14:15:46;795.27;;;736.83;;
15788;SDS011;59075;50.670;6.474;2022-10-30T14:18:19;785.37;;;728.83;;
15788;SDS011;59075;50.670;6.474;2022-10-30T14:20:52;790.57;;;733.63;;
15788;SDS011;59075;50.670;6.474;2022-10-30T14:23:21;791.57;;;734.77;;
15788;SDS011;59075;50.670;6.474;2022-10-30T14:28:39;781.30;;;724.77;;
15788;SDS011;59075;50.670;6.474;2022-10-30T14:31:08;790.90;;;733.93;;
15788;SDS011;59075;50.670;6.474;2022-10-30T14:33:43;790.90;;;733.93;;
15788;SDS011;59075;50.670;6.474;2022-10-30T14:36:14;790.00;;;733.23;;
15788;SDS011;59075;50.670;6.474;2022-10-30T14:38:52;794.20;;;737.00;;
15788;SDS011;59075;50.670;6.474;2022-10-30T14:41:29;781.63;;;725.17;;
15788;SDS011;59075;50.670;6.474;2022-10-30T14:44:10;776.53;;;720.03;;
15788;SDS011;59075;50.670;6.474;2022-10-30T14:46:47;777.57;;;721.03;;
15788;SDS011;59075;50.670;6.474;2022-10-30T14:49:31;778.10;;;721.53;;
15788;SDS011;59075;50.670;6.474;2022-10-30T14:52:12;793.73;;;736.13;;
15788;SDS011;59075;50.670;6.474;2022-10-30T14:54:47;781.40;;;725.07;;
15788;SDS011;59075;50.670;6.474;2022-10-30T14:57:19;799.90;;;742.57;;
15788;SDS011;59075;50.670;6.474;2022-10-30T14:59:47;786.93;;;730.07;;
15788;SDS011;59075;50.670;6.474;2022-10-30T15:02:15;795.97;;;738.87;;
15788;SDS011;59075;50.670;6.474;2022-10-30T15:04:59;782.50;;;725.77;;
15788;SDS011;59075;50.670;6.474;2022-10-30T15:07:48;782.77;;;725.80;;
15788;SDS011;59075;50.670;6.474;2022-10-30T15:10:20;788.50;;;731.57;;
15788;SDS011;59075;50.670;6.474;2022-10-30T15:13:04;793.60;;;736.23;;
15788;SDS011;59075;50.670;6.474;2022-10-30T15:15:34;791.83;;;734.63;;
15788;SDS011;59075;50.670;6.474;2022-10-30T15:18:02;785.87;;;729.00;;
15788;SDS011;59075;50.670;6.474;2022-10-30T15:20:34;776.20;;;719.93;;
15788;SDS011;59075;50.670;6.474;2022-10-30T15:23:05;789.57;;;732.27;;
15788;SDS011;59075;50.670;6.474;2022-10-30T15:25:36;791.77;;;734.40;;
15788;SDS011;59075;50.670;6.474;2022-10-30T15:28:11;782.10;;;725.10;;
15788;SDS011;59075;50.670;6.474;2022-10-30T15:30:56;785.43;;;728.43;;
15788;SDS011;59075;50.670;6.474;2022-10-30T15:33:24;788.17;;;731.00;;
15788;SDS011;59075;50.670;6.474;2022-10-30T15:35:50;799.50;;;741.27;;
15788;SDS011;59075;50.670;6.474;2022-10-30T15:38:17;791.40;;;734.10;;
15788;SDS011;59075;50.670;6.474;2022-10-30T15:40:45;792.27;;;735.17;;
15788;SDS011;59075;50.670;6.474;2022-10-30T15:43:12;783.70;;;726.73;;
15788;SDS011;59075;50.670;6.474;2022-10-30T15:45:42;791.47;;;733.73;;
15788;SDS011;59075;50.670;6.474;2022-10-30T15:48:15;784.30;;;727.50;;
15788;SDS011;59075;50.670;6.474;2022-10-30T15:50:51;781.87;;;725.10;;
15788;SDS011;59075;50.670;6.474;2022-10-30T15:53:20;792.23;;;735.03;;
15788;SDS011;59075;50.670;6.474;2022-10-30T15:55:51;789.37;;;731.37;;
15788;SDS011;59075;50.670;6.474;2022-10-30T15:58:20;778.97;;;722.27;;
15788;SDS011;59075;50.670;6.474;2022-10-30T16:00:53;775.03;;;718.40;;
15788;SDS011;59075;50.670;6.474;2022-10-30T16:03:20;778.63;;;721.90;;
15788;SDS011;59075;50.670;6.474;2022-10-30T16:05:47;780.83;;;723.17;;
15788;SDS011;59075;50.670;6.474;2022-10-30T16:08:14;775.07;;;718.40;;
15788;SDS011;59075;50.670;6.474;2022-10-30T16:10:45;783.47;;;726.60;;
15788;SDS011;59075;50.670;6.474;2022-10-30T16:13:15;781.20;;;724.33;;
15788;SDS011;59075;50.670;6.474;2022-10-30T16:15:43;782.10;;;724.27;;
15788;SDS011;59075;50.670;6.474;2022-10-30T16:18:16;773.63;;;717.00;;
15788;SDS011;59075;50.670;6.474;2022-10-30T16:20:46;774.97;;;718.50;;
15788;SDS011;59075;50.670;6.474;2022-10-30T16:23:15;766.57;;;710.27;;
15788;SDS011;59075;50.670;6.474;2022-10-30T16:25:44;765.27;;;707.93;;
15788;SDS011;59075;50.670;6.474;2022-10-30T16:28:23;769.07;;;712.50;;
15788;SDS011;59075;50.670;6.474;2022-10-30T16:30:52;774.17;;;717.43;;
15788;SDS011;59075;50.670;6.474;2022-10-30T16:33:21;771.87;;;715.50;;
15788;SDS011;59075;50.670;6.474;2022-10-30T16:35:51;781.53;;;723.93;;
15788;SDS011;59075;50.670;6.474;2022-10-30T16:38:18;783.93;;;727.10;;
15788;SDS011;59075;50.670;6.474;2022-10-30T16:40:46;776.90;;;720.17;;
15788;SDS011;59075;50.670;6.474;2022-10-30T16:43:22;783.03;;;725.97;;
15788;SDS011;59075;50.670;6.474;2022-10-30T16:45:52;777.70;;;720.90;;
15788;SDS011;59075;50.670;6.474;2022-10-30T16:48:21;761.37;;;705.23;;
15788;SDS011;59075;50.670;6.474;2022-10-30T16:50:52;777.33;;;720.80;;
15788;SDS011;59075;50.670;6.474;2022-10-30T16:53:24;765.97;;;709.50;;
15788;SDS011;59075;50.670;6.474;2022-10-30T16:55:52;789.63;;;731.13;;
15788;SDS011;59075;50.670;6.474;2022-10-30T16:58:22;771.20;;;714.87;;
15788;SDS011;59075;50.670;6.474;2022-10-30T17:00:53;777.00;;;720.07;;
15788;SDS011;59075;50.670;6.474;2022-10-30T17:03:23;771.60;;;714.60;;
15788;SDS011;59075;50.670;6.474;2022-10-30T17:05:56;773.00;;;715.57;;
15788;SDS011;59075;50.670;6.474;2022-10-30T17:08:32;777.23;;;720.30;;
15788;SDS011;59075;50.670;6.474;2022-10-30T17:11:00;765.47;;;709.17;;
15788;SDS011;59075;50.670;6.474;2022-10-30T17:13:31;765.17;;;708.83;;
15788;SDS011;59075;50.670;6.474;2022-10-30T17:16:16;776.83;;;719.67;;
15788;SDS011;59075;50.670;6.474;2022-10-30T17:18:46;766.97;;;710.93;;
15788;SDS011;59075;50.670;6.474;2022-10-30T17:21:14;768.77;;;712.27;;
15788;SDS011;59075;50.670;6.474;2022-10-30T17:23:44;765.47;;;709.40;;
15788;SDS011;59075;50.670;6.474;2022-10-30T17:26:11;754.57;;;698.77;;
15788;SDS011;59075;50.670;6.474;2022-10-30T17:28:39;763.87;;;707.73;;
15788;SDS011;59075;50.670;6.474;2022-10-30T17:31:21;775.43;;;718.93;;
15788;SDS011;59075;50.670;6.474;2022-10-30T17:34:09;757.63;;;701.73;;
15788;SDS011;59075;50.670;6.474;2022-10-30T17:36:38;756.60;;;700.70;;
15788;SDS011;59075;50.670;6.474;2022-10-30T17:39:05;769.13;;;712.83;;
15788;SDS011;59075;50.670;6.474;2022-10-30T17:41:32;769.80;;;713.63;;
15788;SDS011;59075;50.670;6.474;2022-10-30T17:43:59;773.87;;;717.47;;
15788;SDS011;59075;50.670;6.474;2022-10-30T17:46:27;761.10;;;704.60;;
15788;SDS011;59075;50.670;6.474;2022-10-30T17:48:55;749.97;;;694.20;;
15788;SDS011;59075;50.670;6.474;2022-10-30T17:51:23;782.00;;;725.33;;
15788;SDS011;59075;50.670;6.474;2022-10-30T17:53:49;782.53;;;725.83;;
15788;SDS011;59075;50.670;6.474;2022-10-30T17:56:18;758.80;;;702.90;;
15788;SDS011;59075;50.670;6.474;2022-10-30T17:58:47;755.37;;;699.07;;
15788;SDS011;59075;50.670;6.474;2022-10-30T18:01:14;768.40;;;712.00;;
15788;SDS011;59075;50.670;6.474;2022-10-30T18:03:43;766.03;;;709.63;;
15788;SDS011;59075;50.670;6.474;2022-10-30T18:06:13;774.00;;;717.60;;
15788;SDS011;59075;50.670;6.474;2022-10-30T18:08:41;768.00;;;711.70;;
15788;SDS011;59075;50.670;6.474;2022-10-30T18:11:09;771.57;;;715.13;;
15788;SDS011;59075;50.670;6.474;2022-10-30T18:13:37;779.83;;;723.37;;
15788;SDS011;59075;50.670;6.474;2022-10-30T18:16:04;759.63;;;703.43;;
15788;SDS011;59075;50.670;6.474;2022-10-30T18:18:31;783.00;;;725.40;;
15788;SDS011;59075;50.670;6.474;2022-10-30T18:20:59;780.57;;;723.40;;
15788;SDS011;59075;50.670;6.474;2022-10-30T18:23:26;771.40;;;715.10;;
15788;SDS011;59075;50.670;6.474;2022-10-30T18:25:52;771.37;;;714.77;;
15788;SDS011;59075;50.670;6.474;2022-10-30T18:28:19;760.30;;;704.57;;
15788;SDS011;59075;50.670;6.474;2022-10-30T18:30:48;782.50;;;725.93;;
15788;SDS011;59075;50.670;6.474;2022-10-30T18:33:15;773.00;;;716.70;;
15788;SDS011;59075;50.670;6.474;2022-10-30T18:35:42;799.37;;;740.47;;
15788;SDS011;59075;50.670;6.474;2022-10-30T18:38:10;774.50;;;718.00;;
15788;SDS011;59075;50.670;6.474;2022-10-30T18:40:38;776.10;;;719.73;;
15788;SDS011;59075;50.670;6.474;2022-10-30T18:43:07;772.97;;;716.70;;
15788;SDS011;59075;50.670;6.474;2022-10-30T18:45:35;778.90;;;721.93;;
15788;SDS011;59075;50.670;6.474;2022-10-30T18:48:05;772.37;;;715.90;;
15788;SDS011;59075;50.670;6.474;2022-10-30T18:50:32;773.70;;;717.27;;
15788;SDS011;59075;50.670;6.474;2022-10-30T18:52:59;765.47;;;709.37;;
15788;SDS011;59075;50.670;6.474;2022-10-30T18:55:31;771.03;;;714.80;;
15788;SDS011;59075;50.670;6.474;2022-10-30T18:57:59;777.60;;;721.10;;
15788;SDS011;59075;50.670;6.474;2022-10-30T19:00:27;775.10;;;718.77;;
15788;SDS011;59075;50.670;6.474;2022-10-30T19:02:54;770.60;;;714.23;;
15788;SDS011;59075;50.670;6.474;2022-10-30T19:05:24;770.53;;;714.30;;
15788;SDS011;59075;50.670;6.474;2022-10-30T19:07:54;761.47;;;705.10;;
15788;SDS011;59075;50.670;6.474;2022-10-30T19:10:21;778.40;;;721.87;;
15788;SDS011;59075;50.670;6.474;2022-10-30T19:12:54;774.73;;;718.33;;
15788;SDS011;59075;50.670;6.474;2022-10-30T19:15:23;778.43;;;721.93;;
15788;SDS011;59075;50.670;6.474;2022-10-30T19:17:52;778.23;;;721.60;;
15788;SDS011;59075;50.670;6.474;2022-10-30T19:20:19;755.07;;;699.33;;
15788;SDS011;59075;50.670;6.474;2022-10-30T19:22:46;765.73;;;709.67;;
15788;SDS011;59075;50.670;6.474;2022-10-30T19:25:17;772.53;;;716.30;;
15788;SDS011;59075;50.670;6.474;2022-10-30T19:27:46;771.00;;;714.87;;
15788;SDS011;59075;50.670;6.474;2022-10-30T19:33:14;767.10;;;710.97;;
15788;SDS011;59075;50.670;6.474;2022-10-30T19:35:41;782.60;;;724.97;;
15788;SDS011;59075;50.670;6.474;2022-10-30T19:38:08;766.83;;;710.23;;
15788;SDS011;59075;50.670;6.474;2022-10-30T19:40:35;767.63;;;711.50;;
15788;SDS011;59075;50.670;6.474;2022-10-30T19:43:03;765.30;;;709.20;;
15788;SDS011;59075;50.670;6.474;2022-10-30T19:45:31;778.53;;;722.13;;
15788;SDS011;59075;50.670;6.474;2022-10-30T19:48:00;775.10;;;718.77;;
15788;SDS011;59075;50.670;6.474;2022-10-30T19:50:32;756.40;;;700.80;;
15788;SDS011;59075;50.670;6.474;2022-10-30T19:53:01;771.93;;;715.43;;
15788;SDS011;59075;50.670;6.474;2022-10-30T19:55:29;777.03;;;720.53;;
15788;SDS011;59075;50.670;6.474;2022-10-30T19:57:57;773.10;;;716.83;;
15788;SDS011;59075;50.670;6.474;2022-10-30T20:00:26;778.10;;;721.70;;
15788;SDS011;59075;50.670;6.474;2022-10-30T20:02:55;767.50;;;711.43;;
15788;SDS011;59075;50.670;6.474;2022-10-30T20:05:24;776.77;;;720.17;;
15788;SDS011;59075;50.670;6.474;2022-10-30T20:07:55;769.77;;;713.67;;
15788;SDS011;59075;50.670;6.474;2022-10-30T20:10:26;774.57;;;718.13;;
15788;SDS011;59075;50.670;6.474;2022-10-30T20:12:53;764.47;;;708.27;;
15788;SDS011;59075;50.670;6.474;2022-10-30T20:15:22;769.73;;;713.43;;
15788;SDS011;59075;50.670;6.474;2022-10-30T20:17:49;768.03;;;711.77;;
15788;SDS011;59075;50.670;6.474;2022-10-30T20:20:19;765.00;;;708.93;;
15788;SDS011;59075;50.670;6.474;2022-10-30T20:22:47;785.70;;;728.80;;